Time;durP1;ratioP1;P1;durP2;ratioP2;P2;SDS_P1;SDS_P2;PMS_P1;PMS_P2;Temp;Humidity;BMP_temperature;BMP_pressure;BME280_temperature;BME280_humidity;BME280_pressure;Samples;Min_cycle;Max_cycle;Signal;HPM_P1;HPM_P2
2022/08/19 00:02:22;;;;;;;44.23;25.63;;;;;;;19.10;100.00;100803.75;5026240;28;20052;-74
2022/08/19 00:04:52;;;;;;;42.83;24.70;;;;;;;19.09;100.00;100793.16;5011677;28;20376;-76
2022/08/19 00:07:18;;;;;;;35.28;22.42;;;;;;;19.06;100.00;100793.56;5026044;28;20029;-75
2022/08/19 00:09:43;;;;;;;36.10;24.23;;;;;;;19.10;100.00;100786.69;5025820;28;20403;-76
2022/08/19 00:12:08;;;;;;;43.33;24.70;;;;;;;19.17;100.00;100792.91;5008285;28;20033;-76
2022/08/19 00:14:34;;;;;;;40.57;23.67;;;;;;;19.19;100.00;100786.22;5010885;28;20544;-74
2022/08/19 00:17:01;;;;;;;38.87;23.60;;;;;;;19.17;100.00;100782.91;5025761;28;20291;-74
2022/08/19 00:19:26;;;;;;;36.78;24.02;;;;;;;19.16;100.00;100772.31;5011044;28;20083;-74
2022/08/19 00:21:52;;;;;;;40.45;24.20;;;;;;;19.14;100.00;100780.63;5025800;28;20029;-74
2022/08/19 00:24:18;;;;;;;43.25;26.17;;;;;;;19.02;100.00;100765.31;5025731;28;20390;-75
2022/08/19 00:26:45;;;;;;;49.20;27.77;;;;;;;18.92;100.00;100766.63;5025964;28;20029;-75
2022/08/19 00:29:14;;;;;;;44.20;25.50;;;;;;;18.91;100.00;100764.94;5011227;28;20513;-74
2022/08/19 00:31:41;;;;;;;46.50;26.60;;;;;;;18.94;100.00;100760.97;5011084;28;20025;-75
2022/08/19 00:34:07;;;;;;;46.75;25.75;;;;;;;18.90;100.00;100766.00;5024448;28;20033;-74
2022/08/19 00:36:33;;;;;;;40.22;24.70;;;;;;;18.95;100.00;100766.19;5023164;28;20393;-75
2022/08/19 00:38:59;;;;;;;53.78;27.20;;;;;;;18.83;100.00;100753.56;5024175;28;20124;-74
2022/08/19 00:41:25;;;;;;;44.78;26.98;;;;;;;18.77;100.00;100749.84;5023437;28;20034;-74
2022/08/19 00:44:11;;;;;;;41.55;26.05;;;;;;;18.76;100.00;100764.41;5025425;28;20029;-74
2022/08/19 00:46:39;;;;;;;42.92;26.45;;;;;;;18.69;100.00;100761.72;5007970;28;20510;-75
2022/08/19 00:49:22;;;;;;;40.22;26.95;;;;;;;18.55;100.00;100765.53;5007822;28;20021;-76
2022/08/19 00:51:58;;;;;;;48.13;26.70;;;;;;;18.58;100.00;100761.56;5024968;28;20033;-74
2022/08/19 00:54:24;;;;;;;45.72;29.38;;;;;;;18.56;100.00;100759.88;5023905;28;20786;-75
2022/08/19 00:56:51;;;;;;;37.55;25.65;;;;;;;18.54;100.00;100753.91;5025692;28;20089;-75
2022/08/19 00:59:18;;;;;;;43.85;24.65;;;;;;;18.51;100.00;100751.59;5007418;28;20064;-75
2022/08/19 01:01:45;;;;;;;38.50;24.75;;;;;;;18.50;100.00;100747.25;5023701;28;20452;-75
2022/08/19 01:04:11;;;;;;;43.70;27.25;;;;;;;18.46;100.00;100747.91;5025219;28;20075;-76
2022/08/19 01:06:39;;;;;;;45.47;25.33;;;;;;;18.46;100.00;100743.31;5025218;28;20029;-74
2022/08/19 01:09:05;;;;;;;44.35;26.27;;;;;;;18.45;100.00;100744.38;5025254;28;20223;-75
2022/08/19 01:11:35;;;;;;;46.88;26.45;;;;;;;18.47;100.00;100736.88;5025267;28;20022;-76
2022/08/19 01:14:00;;;;;;;37.38;23.42;;;;;;;18.53;100.00;100721.66;5023734;28;20120;-76
2022/08/19 01:16:28;;;;;;;45.30;25.70;;;;;;;18.53;100.00;100717.06;5025166;28;20022;-74
2022/08/19 01:18:54;;;;;;;44.75;26.67;;;;;;;18.43;100.00;100708.63;5024940;28;20120;-74
2022/08/19 01:21:34;;;;;;;48.00;25.98;;;;;;;18.34;100.00;100708.03;5023634;28;20029;-75
2022/08/19 01:24:00;;;;;;;45.13;27.05;;;;;;;18.33;100.00;100700.13;5010909;28;20041;-76
2022/08/19 01:26:26;;;;;;;43.65;27.50;;;;;;;18.26;100.00;100686.66;5020521;28;20021;-75
2022/08/19 01:28:56;;;;;;;42.63;27.70;;;;;;;18.05;100.00;100701.28;5005161;28;20041;-75
2022/08/19 01:31:30;;;;;;;48.03;29.77;;;;;;;18.05;100.00;100704.00;5026682;28;20040;-74
2022/08/19 01:33:56;;;;;;;47.47;28.58;;;;;;;18.03;100.00;100706.06;5014303;28;20029;-74
2022/08/19 01:36:36;;;;;;;65.43;29.30;;;;;;;18.00;100.00;100702.94;5011214;28;20040;-75
2022/08/19 01:39:13;;;;;;;50.78;28.77;;;;;;;18.08;100.00;100708.13;5027622;28;20041;-75
2022/08/19 01:41:39;;;;;;;45.22;28.10;;;;;;;18.02;100.00;100699.00;5014521;28;20248;-75
2022/08/19 01:44:08;;;;;;;49.65;27.75;;;;;;;17.97;100.00;100700.69;5011564;28;20021;-75
2022/08/19 01:46:33;;;;;;;49.63;28.48;;;;;;;17.92;100.00;100690.50;5026693;28;20687;-74
2022/08/19 01:48:59;;;;;;;48.30;28.67;;;;;;;17.97;100.00;100689.88;5028823;28;20025;-74
2022/08/19 01:51:25;;;;;;;41.13;25.35;;;;;;;18.04;100.00;100702.31;5010563;28;20442;-75
2022/08/19 01:53:51;;;;;;;44.67;28.40;;;;;;;18.02;100.00;100699.00;5010873;28;20442;-76
2022/08/19 01:56:18;;;;;;;40.88;26.33;;;;;;;18.04;100.00;100686.09;5010850;28;20119;-76
2022/08/19 01:58:55;;;;;;;39.58;26.33;;;;;;;17.95;100.00;100691.97;5025641;28;20030;-75
2022/08/19 02:01:21;;;;;;;41.85;25.98;;;;;;;17.94;100.00;100701.94;5028142;28;20481;-76
2022/08/19 02:03:46;;;;;;;42.33;27.40;;;;;;;17.93;100.00;100701.13;5014245;28;20029;-74
2022/08/19 02:06:12;;;;;;;44.80;29.77;;;;;;;17.91;100.00;100699.63;5028282;28;20056;-74
2022/08/19 02:08:39;;;;;;;50.08;27.60;;;;;;;17.87;100.00;100701.13;5028209;28;20048;-74
2022/08/19 02:11:04;;;;;;;;;;;;;;;17.81;100.00;100704.66;5014062;28;20045;-74
2022/08/19 02:13:30;;;;;;;54.47;29.45;;;;;;;17.80;100.00;100690.31;5027184;28;19909;-75
2022/08/19 02:15:55;;;;;;;58.03;29.77;;;;;;;17.79;100.00;100690.50;5028186;28;20080;-76
2022/08/19 02:18:20;;;;;;;49.50;31.03;;;;;;;17.84;100.00;100690.72;5027157;28;20043;-74
2022/08/19 02:20:47;;;;;;;65.20;32.17;;;;;;;17.81;100.00;100691.97;5027871;28;20553;-74
2022/08/19 02:23:13;;;;;;;;;;;;;;;17.85;100.00;100689.69;5009415;28;20119;-75
2022/08/19 02:25:39;;;;;;;70.43;33.28;;;;;;;17.82;100.00;100690.97;5026381;28;19936;-74
2022/08/19 02:28:04;;;;;;;63.33;33.88;;;;;;;17.82;100.00;100692.84;5027931;28;20017;-74
2022/08/19 02:30:30;;;;;;;57.13;30.50;;;;;;;17.84;100.00;100683.47;5012061;28;20029;-74
2022/08/19 02:32:56;;;;;;;62.08;32.65;;;;;;;17.79;100.00;100688.63;5013246;28;20276;-74
2022/08/19 02:35:21;;;;;;;53.27;29.63;;;;;;;17.81;100.00;100688.47;5028409;28;20031;-76
2022/08/19 02:40:35;;;;;;;67.85;30.92;;;;;;;17.73;100.00;100687.63;5009864;28;20029;-75
2022/08/19 02:43:02;;;;;;;70.00;32.05;;;;;;;17.73;100.00;100690.31;5009945;28;20029;-74
2022/08/19 02:45:33;;;;;;;64.85;31.35;;;;;;;17.75;100.00;100691.97;5022934;28;20033;-76
2022/08/19 02:47:58;;;;;;;58.38;32.33;;;;;;;17.77;100.00;100690.75;5010132;28;20034;-76
2022/08/19 02:50:24;;;;;;;62.77;31.80;;;;;;;17.78;100.00;100703.19;5022666;28;20021;-76
2022/08/19 02:52:49;;;;;;;70.97;35.07;;;;;;;17.76;100.00;100704.44;5026457;28;20033;-75
2022/08/19 02:55:14;;;;;;;64.47;31.23;;;;;;;17.79;100.00;100698.59;5009904;28;20029;-74
2022/08/19 02:57:41;;;;;;;72.77;34.47;;;;;;;17.79;100.00;100690.50;5027568;28;20033;-75
2022/08/19 03:00:07;;;;;;;;;;;;;;;17.91;100.00;100694.25;5009934;28;20147;-75
2022/08/19 03:02:32;;;;;;;64.50;31.75;;;;;;;17.89;100.00;100680.97;5025821;28;20452;-74
2022/08/19 03:04:58;;;;;;;62.40;32.70;;;;;;;17.90;100.00;100684.50;5027765;28;20037;-75
2022/08/19 03:07:23;;;;;;;61.10;32.33;;;;;;;17.89;100.00;100686.38;4996832;28;20120;-76
2022/08/19 03:09:48;;;;;;;66.00;34.77;;;;;;;17.82;100.00;100679.34;4996173;28;20494;-76
2022/08/19 03:12:14;;;;;;;78.03;35.23;;;;;;;17.86;100.00;100685.94;5025987;28;20120;-75
2022/08/19 03:14:39;;;;;;;73.70;35.90;;;;;;;17.77;100.00;100689.88;5025597;28;20021;-74
2022/08/19 03:17:05;;;;;;;74.10;36.17;;;;;;;17.88;100.00;100692.78;5027308;28;20048;-76
2022/08/19 03:19:31;;;;;;;70.10;34.50;;;;;;;17.91;100.00;100705.91;5026835;28;20543;-74
2022/08/19 03:21:57;;;;;;;77.30;36.08;;;;;;;17.85;100.00;100697.81;5009053;28;20879;-74
2022/08/19 03:24:23;;;;;;;95.50;40.42;;;;;;;17.81;100.00;100707.38;5009209;28;20025;-74
2022/08/19 03:26:57;;;;;;;79.50;36.95;;;;;;;17.93;100.00;100705.66;5027368;28;20036;-76
2022/08/19 03:29:23;;;;;;;100.15;40.85;;;;;;;17.79;100.00;100714.81;5008719;28;20067;-74
2022/08/19 03:31:51;;;;;;;84.82;39.03;;;;;;;17.79;100.00;100717.50;5009421;28;20060;-75
2022/08/19 03:34:26;;;;;;;76.60;37.58;;;;;;;17.91;100.00;100721.25;5022215;28;20120;-75
2022/08/19 03:36:54;;;;;;;76.03;37.60;;;;;;;17.98;100.00;100723.94;5012589;28;20136;-74
2022/08/19 03:39:20;;;;;;;91.63;39.92;;;;;;;17.97;100.00;100722.28;5012184;28;20024;-76
2022/08/19 03:41:47;;;;;;;86.80;40.42;;;;;;;17.96;100.00;100732.28;5026474;28;20033;-74
2022/08/19 03:44:14;;;;;;;84.47;39.58;;;;;;;17.98;100.00;100730.19;5027028;28;20029;-74
2022/08/19 03:46:39;;;;;;;100.72;42.40;;;;;;;17.90;100.00;100733.09;5012380;28;20033;-76
2022/08/19 03:49:07;;;;;;;90.57;39.23;;;;;;;17.93;100.00;100736.22;5026366;28;20021;-74
2022/08/19 03:51:38;;;;;;;86.15;39.40;;;;;;;17.97;100.00;100743.91;5026372;28;20032;-76
2022/08/19 03:54:07;;;;;;;94.25;40.15;;;;;;;17.98;100.00;100751.81;5006424;28;20099;-74
2022/08/19 03:56:37;;;;;;;93.07;39.70;;;;;;;17.95;100.00;100740.56;5026417;28;20121;-74
2022/08/19 03:59:05;;;;;;;92.13;40.00;;;;;;;17.91;100.00;100741.00;5026238;28;20033;-75
2022/08/19 04:01:31;;;;;;;86.07;38.80;;;;;;;17.98;100.00;100754.50;5026811;28;20140;-75
2022/08/19 04:03:57;;;;;;;73.83;36.53;;;;;;;18.00;100.00;100759.66;5027374;28;20379;-74
2022/08/19 04:06:27;;;;;;;89.38;39.20;;;;;;;18.03;100.00;100760.09;5008892;28;20498;-74
2022/08/19 04:08:54;;;;;;;95.93;37.95;;;;;;;17.90;100.00;100762.81;5012042;28;20124;-74
2022/08/19 04:11:23;;;;;;;96.38;43.15;;;;;;;17.93;100.00;100765.09;5026014;28;20021;-75
2022/08/19 04:13:51;;;;;;;98.20;38.92;;;;;;;17.92;100.00;100766.13;5012371;28;20079;-75
2022/08/19 04:16:17;;;;;;;86.88;39.90;;;;;;;17.86;100.00;100764.25;5026680;28;20523;-74
2022/08/19 04:18:43;;;;;;;90.43;40.40;;;;;;;17.90;100.00;100774.44;5026262;28;20034;-75
2022/08/19 04:21:16;;;;;;;93.80;39.87;;;;;;;17.81;100.00;100774.88;5025858;28;20079;-75
2022/08/19 04:23:42;;;;;;;92.57;40.17;;;;;;;17.97;100.00;100782.53;5026377;28;20047;-75
2022/08/19 04:26:11;;;;;;;100.10;41.53;;;;;;;17.95;100.00;100778.38;5026290;28;20475;-76
2022/08/19 04:28:37;;;;;;;99.78;41.33;;;;;;;17.95;100.00;100783.78;5008396;28;20479;-75
2022/08/19 04:31:02;;;;;;;107.03;40.35;;;;;;;18.04;100.00;100777.13;5024610;28;20025;-75
2022/08/19 04:33:28;;;;;;;85.80;37.60;;;;;;;18.06;100.00;100778.56;5023405;28;20033;-75
2022/08/19 04:35:53;;;;;;;88.05;38.53;;;;;;;18.06;100.00;100781.28;5025834;28;20076;-76
2022/08/19 04:38:22;;;;;;;84.57;36.27;;;;;;;18.07;100.00;100776.69;5026108;28;20137;-75
2022/08/19 04:43:36;;;;;;;81.68;39.10;;;;;;;18.08;100.00;100784.59;5010266;28;20167;-75
2022/08/19 04:46:07;;;;;;;94.30;39.65;;;;;;;18.08;100.00;100779.19;5008303;28;20055;-74
2022/08/19 04:48:34;;;;;;;100.75;39.22;;;;;;;18.11;100.00;100772.53;5009665;28;20497;-75
2022/08/19 04:50:59;;;;;;;95.60;37.63;;;;;;;18.16;100.00;100767.31;5024397;28;20115;-76
2022/08/19 04:53:30;;;;;;;89.38;38.38;;;;;;;18.22;100.00;100771.06;5008295;28;20558;-76
2022/08/19 04:55:57;;;;;;;78.95;35.92;;;;;;;18.27;100.00;100771.25;5026190;28;20315;-76
2022/08/19 04:58:25;;;;;;;82.47;37.25;;;;;;;18.31;100.00;100767.09;5025973;28;20072;-76
2022/08/19 05:00:51;;;;;;;86.22;38.42;;;;;;;18.28;100.00;100768.31;5025300;28;20041;-76
2022/08/19 05:03:17;;;;;;;80.40;36.58;;;;;;;18.35;100.00;100771.00;5007964;28;20035;-75
2022/08/19 05:05:45;;;;;;;86.30;36.55;;;;;;;18.42;100.00;100768.28;5024555;28;20029;-75
2022/08/19 05:08:19;;;;;;;97.35;37.90;;;;;;;18.43;100.00;100768.09;5024066;28;20103;-75
2022/08/19 05:10:47;;;;;;;96.88;36.90;;;;;;;18.46;100.00;100764.13;5024865;28;20108;-75
2022/08/19 05:13:14;;;;;;;93.57;36.97;;;;;;;18.46;100.00;100770.34;5013506;28;20039;-75
2022/08/19 05:15:40;;;;;;;90.22;37.28;;;;;;;18.35;100.00;100771.84;5019143;28;20475;-76
2022/08/19 05:23:33;;;;;;;90.65;36.50;;;;;;;18.26;100.00;100774.97;5022590;28;20030;-76
2022/08/19 05:25:59;;;;;;;86.03;35.30;;;;;;;18.30;100.00;100777.03;5024707;28;20063;-76
2022/08/19 05:28:24;;;;;;;95.60;37.33;;;;;;;18.25;100.00;100767.94;5008104;28;20037;-76
2022/08/19 05:30:50;;;;;;;83.97;33.33;;;;;;;18.39;100.00;100784.94;5025159;28;20061;-77
2022/08/19 05:33:17;;;;;;;83.85;36.03;;;;;;;18.47;100.00;100784.69;5011625;28;20064;-76
2022/08/19 05:35:43;;;;;;;95.05;36.22;;;;;;;18.46;100.00;100785.75;5002565;28;20116;-76
2022/08/19 05:38:10;;;;;;;82.30;34.47;;;;;;;18.36;100.00;100780.78;5014964;28;20471;-75
2022/08/19 05:40:38;;;;;;;94.90;36.97;;;;;;;18.44;100.00;100780.53;5009768;28;20021;-74
2022/08/19 05:43:08;;;;;;;95.47;38.22;;;;;;;18.46;100.00;100786.56;5011151;28;20037;-76
2022/08/19 05:45:39;;;;;;;86.97;34.50;;;;;;;18.47;100.00;100781.97;5010528;28;20479;-75
2022/08/19 05:48:05;;;;;;;84.07;35.95;;;;;;;18.58;100.00;100781.31;5022734;28;20068;-74
2022/08/19 05:50:30;;;;;;;85.40;34.97;;;;;;;18.56;100.00;100781.53;5024065;28;20060;-74
2022/08/19 05:52:56;;;;;;;77.10;35.13;;;;;;;18.57;100.00;100787.78;5024307;28;20037;-76
2022/08/19 05:55:22;;;;;;;93.53;35.83;;;;;;;18.54;100.00;100788.19;5024031;28;20032;-74
2022/08/19 05:57:48;;;;;;;88.70;35.33;;;;;;;18.52;100.00;100785.72;5023383;28;20041;-77
2022/08/19 06:00:13;;;;;;;91.32;35.45;;;;;;;18.45;100.00;100776.81;5023008;28;20090;-74
2022/08/19 06:02:40;;;;;;;87.38;33.28;;;;;;;18.52;100.00;100777.59;5024650;28;20402;-77
2022/08/19 06:05:07;;;;;;;84.20;35.90;;;;;;;18.58;100.00;100777.78;5006887;28;20104;-77
2022/08/19 06:07:32;;;;;;;81.63;35.67;;;;;;;18.44;100.00;100771.59;5005972;28;20049;-75
2022/08/19 06:09:58;;;;;;;85.45;33.45;;;;;;;18.58;100.00;100777.78;5024446;28;20364;-75
2022/08/19 06:12:28;;;;;;;77.50;32.83;;;;;;;18.58;100.00;100775.91;5024680;28;20355;-76
2022/08/19 06:14:54;;;;;;;88.55;35.75;;;;;;;18.75;100.00;100770.84;5023375;28;20033;-76
2022/08/19 06:17:22;;;;;;;86.10;34.03;;;;;;;18.67;100.00;100763.81;5025910;28;20026;-77
2022/08/19 06:19:49;;;;;;;75.80;33.13;;;;;;;18.74;100.00;100763.78;5013557;28;20041;-77
2022/08/19 06:22:15;;;;;;;83.45;35.63;;;;;;;18.83;100.00;100759.81;5026454;28;20021;-77
2022/08/19 06:24:41;;;;;;;85.50;35.10;;;;;;;18.75;100.00;100758.16;5028159;28;20029;-77
2022/08/19 06:27:06;;;;;;;86.00;35.78;;;;;;;18.78;100.00;100759.63;5027894;28;20280;-75
2022/08/19 06:29:33;;;;;;;89.63;34.90;;;;;;;18.81;100.00;100763.78;5026463;28;20087;-74
2022/08/19 06:32:00;;;;;;;76.68;30.75;;;;;;;18.90;100.00;100766.00;5022778;28;20398;-75
2022/08/19 06:34:28;;;;;;;83.28;32.65;;;;;;;18.87;100.00;100754.78;5027549;28;20029;-77
2022/08/19 06:36:55;;;;;;;79.10;32.08;;;;;;;18.95;100.00;100768.06;5026459;28;20048;-75
2022/08/19 06:39:26;;;;;;;90.82;32.75;;;;;;;18.96;100.00;100765.16;5009735;28;20043;-75
2022/08/19 06:41:55;;;;;;;78.90;33.28;;;;;;;18.95;100.00;100768.06;5027382;28;20046;-75
2022/08/19 06:44:22;;;;;;;75.93;31.15;;;;;;;18.83;100.00;100767.94;5009999;28;20040;-75
2022/08/19 06:46:48;;;;;;;92.75;35.47;;;;;;;18.71;100.00;100758.81;5026348;28;20108;-75
2022/08/19 06:49:14;;;;;;;;;;;;;;;18.77;100.00;100769.59;5010200;28;20025;-74
2022/08/19 06:51:49;;;;;;;94.18;34.25;;;;;;;18.79;100.00;100779.41;5025710;28;19954;-75
2022/08/19 06:54:16;;;;;;;96.95;35.47;;;;;;;18.69;100.00;100782.53;5009843;28;20045;-75
2022/08/19 06:56:43;;;;;;;82.53;33.92;;;;;;;18.63;100.00;100791.50;5027442;28;20461;-75
2022/08/19 06:59:15;;;;;;;84.97;34.92;;;;;;;18.65;100.00;100790.22;5012735;28;20478;-75
2022/08/19 07:01:47;;;;;;;87.97;34.20;;;;;;;18.57;100.00;100804.00;5027225;28;20419;-75
2022/08/19 07:04:16;;;;;;;79.32;33.20;;;;;;;18.60;100.00;100795.47;5013381;28;20521;-76
2022/08/19 07:06:43;;;;;;;79.55;32.72;;;;;;;18.64;100.00;100803.97;5027366;28;20025;-76
2022/08/19 07:09:09;;;;;;;;;;;;;;;18.71;100.00;100804.78;5018122;28;20486;-76
2022/08/19 07:11:34;;;;;;;74.35;31.67;;;;;;;18.69;100.00;100807.69;5025072;28;19920;-76
2022/08/19 07:14:00;;;;;;;83.97;35.75;;;;;;;18.73;100.00;100814.34;5025953;28;20029;-76
2022/08/19 07:16:27;;;;;;;81.82;35.72;;;;;;;18.68;100.00;100807.91;5009238;28;20497;-75
2022/08/19 07:18:53;;;;;;;88.18;33.95;;;;;;;18.73;100.00;100811.63;4996686;28;20045;-75
2022/08/19 07:21:26;;;;;;;85.30;31.93;;;;;;;18.86;100.00;100818.88;5026628;28;20022;-75
2022/08/19 07:23:52;;;;;;;79.80;33.08;;;;;;;18.91;100.00;100810.94;5009554;28;20084;-75
2022/08/19 07:26:27;;;;;;;71.93;31.60;;;;;;;18.87;100.00;100817.84;5024915;28;20045;-75
2022/08/19 07:28:54;;;;;;;82.57;34.07;;;;;;;18.97;100.00;100818.19;5011709;28;20041;-75
2022/08/19 07:31:22;;;;;;;83.03;31.38;;;;;;;19.00;100.00;100818.81;5026327;28;20285;-75
2022/08/19 07:33:50;;;;;;;92.97;35.00;;;;;;;19.08;100.00;100816.69;5009110;28;20491;-75
2022/08/19 07:36:20;;;;;;;67.90;31.67;;;;;;;19.19;100.00;100813.28;5026407;28;20026;-75
2022/08/19 07:38:48;;;;;;;77.40;32.05;;;;;;;19.22;100.00;100801.19;5023669;28;20041;-75
2022/08/19 07:41:17;;;;;;;88.55;34.63;;;;;;;19.18;100.00;100797.28;5026064;28;20056;-75
2022/08/19 07:43:43;;;;;;;100.30;33.72;;;;;;;19.07;100.00;100800.66;5023349;28;20112;-74
2022/08/19 07:46:10;;;;;;;83.50;31.75;;;;;;;19.12;100.00;100808.97;5008823;28;20108;-77
2022/08/19 07:48:36;;;;;;;78.88;33.22;;;;;;;19.12;100.00;100811.66;4995344;28;20459;-75
2022/08/19 07:51:04;;;;;;;81.43;32.08;;;;;;;19.11;100.00;100826.25;5026067;28;20056;-74
2022/08/19 07:53:32;;;;;;;82.57;31.10;;;;;;;19.13;100.00;100814.16;5024650;28;20538;-76
2022/08/19 07:56:03;;;;;;;78.30;31.63;;;;;;;19.11;100.00;100818.97;5024996;28;20022;-75
2022/08/19 07:58:33;;;;;;;80.22;30.23;;;;;;;19.19;100.00;100828.69;5023411;28;20137;-76
2022/08/19 08:00:59;;;;;;;81.95;30.27;;;;;;;19.13;100.00;100838.53;5008132;28;20033;-75
2022/08/19 08:11:50;;;;;;;78.25;30.95;;;;;;;19.54;100.00;100830.97;5025821;28;20102;-75
2022/08/19 08:14:22;;;;;;;67.88;29.92;;;;;;;19.73;100.00;100832.72;5025509;28;20034;-75
2022/08/19 08:16:47;;;;;;;71.68;29.80;;;;;;;19.73;100.00;100832.72;5024547;28;20071;-75
2022/08/19 08:19:17;;;;;;;71.53;29.63;;;;;;;19.81;100.00;100829.75;4999899;28;20081;-75
2022/08/19 08:21:43;;;;;;;53.08;27.48;;;;;;;19.96;100.00;100823.16;5005143;28;20113;-75
2022/08/19 08:24:09;;;;;;;67.07;29.20;;;;;;;20.07;100.00;100829.72;5021042;28;20021;-75
2022/08/19 08:26:34;;;;;;;63.75;29.00;;;;;;;20.02;100.00;100820.38;5016028;28;20040;-75
2022/08/19 08:28:59;;;;;;;61.83;28.50;;;;;;;19.98;100.00;100821.88;5025511;28;20025;-75
2022/08/19 08:31:25;;;;;;;60.43;29.27;;;;;;;20.05;100.00;100838.06;5024086;28;20398;-75
2022/08/19 08:33:50;;;;;;;56.30;29.13;;;;;;;20.02;100.00;100833.94;5025605;28;20513;-75
2022/08/19 08:36:16;;;;;;;49.35;26.50;;;;;;;20.03;100.00;100837.47;5007798;28;20125;-75
2022/08/19 08:38:46;;;;;;;63.37;29.90;;;;;;;20.13;100.00;100851.31;5024334;28;20029;-75
2022/08/19 08:41:40;;;;;;;62.53;29.55;;;;;;;20.07;100.00;100841.38;5010932;28;20280;-75
2022/08/19 08:44:11;;;;;;;55.05;26.90;;;;;;;20.09;100.00;100854.69;5025630;28;20040;-75
2022/08/19 08:46:46;;;;;;;56.20;27.95;;;;;;;20.03;100.00;100864.56;5023573;28;20033;-76
2022/08/19 08:49:27;;;;;;;48.45;26.83;;;;;;;20.15;100.00;100876.31;5025161;28;20232;-75
2022/08/19 08:52:06;;;;;;;56.70;28.52;;;;;;;20.13;100.00;100861.34;5025516;28;20037;-75
2022/08/19 08:54:39;;;;;;;60.53;28.90;;;;;;;20.21;100.00;100880.88;5025328;28;20045;-75
2022/08/19 08:57:17;;;;;;;53.55;30.38;;;;;;;20.11;100.00;100877.00;5024986;28;20079;-75
2022/08/19 08:59:50;;;;;;;55.50;31.13;;;;;;;20.16;100.00;100872.56;5021600;28;20025;-75
2022/08/19 09:02:16;;;;;;;45.97;28.38;;;;;;;20.18;100.00;100875.91;5024942;28;20037;-75
2022/08/19 09:04:41;;;;;;;53.35;30.70;;;;;;;20.08;100.00;100875.56;5025363;28;20032;-74
2022/08/19 09:07:14;;;;;;;58.90;30.83;;;;;;;19.96;100.00;100874.63;5023775;28;20402;-75
2022/08/19 09:09:46;;;;;;;64.68;32.65;;;;;;;19.97;100.00;100881.69;5010534;28;20087;-75
2022/08/19 09:12:41;;;;;;;51.88;31.50;;;;;;;19.95;100.00;100891.94;5023336;28;20033;-75
2022/08/19 09:15:11;;;;;;;50.72;31.67;;;;;;;19.98;100.00;100896.91;5024755;28;20427;-75
2022/08/19 09:17:38;;;;;;;58.30;31.33;;;;;;;19.92;100.00;100895.06;5025134;28;20448;-75
2022/08/19 09:20:10;;;;;;;58.95;31.20;;;;;;;19.87;100.00;100894.91;5024367;28;20479;-75
2022/08/19 09:22:39;;;;;;;49.50;30.27;;;;;;;19.81;100.00;100896.63;5023081;28;20572;-75
2022/08/19 09:25:08;;;;;;;62.22;32.65;;;;;;;19.85;100.00;100897.00;5011045;28;20488;-75
2022/08/19 09:27:33;;;;;;;54.38;31.60;;;;;;;19.82;100.00;100896.41;5008621;28;20025;-75
2022/08/19 09:29:59;;;;;;;56.22;32.70;;;;;;;19.82;100.00;100901.00;5020275;28;20503;-74
2022/08/19 09:32:25;;;;;;;63.60;34.00;;;;;;;19.82;100.00;100909.94;4999018;28;20671;-75
2022/08/19 09:34:54;;;;;;;56.25;34.13;;;;;;;19.81;100.00;100907.47;5015548;28;20037;-75
2022/08/19 09:37:19;;;;;;;61.28;34.03;;;;;;;19.64;100.00;100912.53;5007159;28;20040;-75
2022/08/19 09:39:45;;;;;;;68.38;34.17;;;;;;;19.64;100.00;100928.78;5023154;28;20029;-75
2022/08/19 09:42:13;;;;;;;60.63;33.30;;;;;;;19.58;100.00;100924.25;5025049;28;20538;-75
2022/08/19 09:44:40;;;;;;;64.47;35.60;;;;;;;19.56;100.00;100915.53;5024985;28;20037;-75
2022/08/19 09:47:05;;;;;;;67.82;34.05;;;;;;;19.49;100.00;100934.50;5007012;28;20501;-75
2022/08/19 09:49:31;;;;;;;66.57;34.63;;;;;;;19.24;100.00;100931.72;5023043;28;20029;-75
2022/08/19 09:51:57;;;;;;;61.33;32.63;;;;;;;19.22;100.00;100939.22;5027193;28;20453;-75
2022/08/19 09:54:23;;;;;;;68.47;35.25;;;;;;;19.29;100.00;100936.47;5028225;28;20129;-75
2022/08/19 09:56:49;;;;;;;;;;;;;;;19.21;100.00;100932.16;5029003;28;20487;-75
2022/08/19 09:59:15;;;;;;;60.17;33.17;;;;;;;19.24;100.00;100929.00;5014115;28;19921;-75
2022/08/19 10:01:40;;;;;;;73.13;34.55;;;;;;;19.19;100.00;100936.94;5027049;28;20358;-75
2022/08/19 10:04:08;;;;;;;73.60;36.57;;;;;;;19.23;100.00;100930.06;5027247;28;20038;-75
2022/08/19 10:06:36;;;;;;;71.20;36.03;;;;;;;19.35;100.00;100936.44;5026324;28;20511;-75
2022/08/19 10:09:05;;;;;;;66.22;36.70;;;;;;;19.37;100.00;100942.47;5028396;28;20454;-75
2022/08/19 10:11:30;;;;;;;65.90;35.20;;;;;;;19.38;100.00;100925.19;5011080;28;20072;-75
2022/08/19 10:13:56;;;;;;;66.23;36.27;;;;;;;19.34;100.00;100923.16;5028640;28;20061;-75
2022/08/19 10:16:22;;;;;;;71.38;37.40;;;;;;;19.29;100.00;100920.25;5028074;28;20394;-75
2022/08/19 10:18:49;;;;;;;74.20;37.65;;;;;;;19.14;100.00;100924.06;5026826;28;20041;-75
2022/08/19 10:21:24;;;;;;;81.90;38.15;;;;;;;19.11;100.00;100929.91;5009959;28;20029;-75
2022/08/19 10:23:51;;;;;;;85.50;41.38;;;;;;;19.22;100.00;100941.09;5028333;28;20040;-75
2022/08/19 10:26:24;;;;;;;88.15;40.67;;;;;;;19.17;100.00;100939.88;5011873;28;20017;-75
2022/08/19 10:28:50;;;;;;;76.65;40.22;;;;;;;19.07;100.00;100933.25;5014011;28;20060;-75
2022/08/19 10:31:23;;;;;;;80.82;37.63;;;;;;;19.15;100.00;100938.41;5009896;28;20033;-75
2022/08/19 10:33:50;;;;;;;75.72;37.22;;;;;;;19.17;100.00;100933.63;5026661;28;20509;-75
2022/08/19 10:36:19;;;;;;;72.50;36.50;;;;;;;19.18;100.00;100925.28;5027508;28;20124;-75
2022/08/19 10:38:50;;;;;;;70.50;35.95;;;;;;;19.20;100.00;100925.09;5024856;28;20037;-75
2022/08/19 10:41:18;;;;;;;73.85;36.38;;;;;;;19.20;100.00;100922.38;5013454;28;20041;-75
2022/08/19 10:43:45;;;;;;;74.28;36.50;;;;;;;19.21;100.00;100936.75;5026774;28;20398;-75
2022/08/19 10:46:13;;;;;;;70.35;35.90;;;;;;;19.21;100.00;100924.03;5027529;28;20025;-75
2022/08/19 10:48:39;;;;;;;79.20;37.40;;;;;;;19.18;100.00;100929.88;5025853;28;20030;-75
2022/08/19 10:53:49;;;;;;;76.95;38.40;;;;;;;19.08;100.00;100924.06;5026342;28;20375;-75
2022/08/19 10:59:00;;;;;;;81.22;38.17;;;;;;;19.09;100.00;100931.16;5026112;28;20052;-75
2022/08/19 11:01:26;;;;;;;67.47;37.60;;;;;;;19.04;100.00;100933.69;5027093;28;20029;-75
2022/08/19 11:03:52;;;;;;;73.63;36.97;;;;;;;19.01;100.00;100939.50;5026129;28;20471;-75
2022/08/19 11:06:19;;;;;;;73.43;35.08;;;;;;;18.98;100.00;100928.06;5027119;28;20031;-75
2022/08/19 11:08:45;;;;;;;74.53;35.75;;;;;;;18.96;100.00;100926.63;5009552;28;20051;-75
2022/08/19 11:11:11;;;;;;;76.95;38.83;;;;;;;18.91;100.00;100927.25;5026867;28;20562;-75
2022/08/19 11:13:39;;;;;;;90.80;40.38;;;;;;;18.85;100.00;100920.00;5022445;28;20042;-75
2022/08/19 11:16:11;;;;;;;78.30;39.00;;;;;;;18.91;100.00;100929.97;5016017;28;20030;-75
2022/08/19 11:18:45;;;;;;;82.38;40.15;;;;;;;18.91;100.00;100934.56;5018191;28;20037;-75
2022/08/19 11:21:23;;;;;;;74.90;37.90;;;;;;;18.90;100.00;100933.72;5016776;28;20893;-75
2022/08/19 11:23:51;;;;;;;76.43;36.50;;;;;;;19.03;100.00;100932.00;5016204;28;20044;-74
2022/08/19 11:26:18;;;;;;;77.97;39.67;;;;;;;19.01;100.00;100925.97;5017677;28;20471;-75
2022/08/19 11:28:45;;;;;;;72.45;39.40;;;;;;;19.11;100.00;100929.91;4996194;28;20038;-75
2022/08/19 11:31:13;;;;;;;78.75;38.85;;;;;;;19.16;100.00;100923.84;5015119;28;20021;-75